Time;durP1;ratioP1;P1;durP2;ratioP2;P2;SDS_P1;SDS_P2;PMS_P1;PMS_P2;Temp;Humidity;BMP_temperature;BMP_pressure;BME280_temperature;BME280_humidity;BME280_pressure;Samples;Min_cycle;Max_cycle;Signal;HPM_P1;HPM_P2
2021/01/08 00:00:24;;;;;;;27.05;13.63;;;;;;;1.20;87.66;100394.91;4999725;28;20058;-64
2021/01/08 00:02:51;;;;;;;24.35;13.85;;;;;;;1.11;87.05;100397.72;4982245;28;20068;-64
2021/01/08 00:05:17;;;;;;;27.33;14.18;;;;;;;1.05;87.32;100395.28;5004417;28;20053;-61
2021/01/08 00:07:44;;;;;;;24.80;13.30;;;;;;;0.95;87.63;100389.47;4988907;28;20077;-64
2021/01/08 00:10:11;;;;;;;25.83;13.63;;;;;;;1.08;88.25;100388.31;5001608;28;20594;-63
2021/01/08 00:12:38;;;;;;;23.17;14.07;;;;;;;1.23;86.83;100393.09;5004718;28;20058;-65
2021/01/08 00:15:06;;;;;;;31.23;14.23;;;;;;;0.98;87.76;100395.41;5002613;28;20057;-64
2021/01/08 00:17:33;;;;;;;31.10;15.82;;;;;;;1.04;87.42;100393.56;4995752;28;20085;-63
2021/01/08 00:20:00;;;;;;;27.42;13.65;;;;;;;1.08;87.56;100392.59;4985172;28;20460;-62
2021/01/08 00:22:26;;;;;;;28.05;14.70;;;;;;;0.93;87.97;100388.66;5000157;28;20049;-63
2021/01/08 00:24:54;;;;;;;28.33;15.30;;;;;;;1.08;87.77;100380.53;5039329;23;20041;-57
2021/01/08 00:27:21;;;;;;;29.98;14.93;;;;;;;0.99;88.15;100388.50;5026603;28;20518;-54
2021/01/08 00:29:48;;;;;;;26.85;14.85;;;;;;;1.02;87.86;100393.63;5022956;28;20056;-61
2021/01/08 00:32:18;;;;;;;29.63;14.25;;;;;;;1.11;88.18;100384.75;5024363;28;20053;-57
2021/01/08 00:34:46;;;;;;;26.15;14.27;;;;;;;1.11;87.70;100389.94;5018056;28;20342;-59
2021/01/08 00:37:13;;;;;;;29.95;15.85;;;;;;;1.09;87.65;100389.16;4997639;28;20062;-53
2021/01/08 00:39:41;;;;;;;30.70;16.63;;;;;;;1.08;87.80;100388.31;5010445;28;20141;-56
2021/01/08 00:42:08;;;;;;;29.98;15.77;;;;;;;1.09;87.63;100377.03;5020469;28;20054;-52
2021/01/08 00:44:35;;;;;;;27.33;15.75;;;;;;;1.02;88.11;100381.50;4990621;28;20052;-54
2021/01/08 00:47:05;;;;;;;29.42;14.70;;;;;;;1.13;87.88;100377.81;5000368;28;20302;-57
2021/01/08 00:49:32;;;;;;;32.08;15.20;;;;;;;0.93;88.40;100383.47;5002848;28;20065;-54
2021/01/08 00:51:59;;;;;;;31.25;15.77;;;;;;;0.99;88.59;100385.91;5000462;28;20057;-56
2021/01/08 00:54:25;;;;;;;27.02;14.70;;;;;;;0.88;88.74;100382.72;5006498;28;20598;-55
2021/01/08 00:56:52;;;;;;;27.10;15.65;;;;;;;1.06;88.92;100384.03;5000079;28;20050;-56
2021/01/08 00:59:19;;;;;;;31.95;14.82;;;;;;;1.10;88.52;100381.31;5001553;28;20056;-51
2021/01/08 01:01:46;;;;;;;28.10;15.65;;;;;;;1.14;87.91;100387.28;5004973;28;20505;-55
2021/01/08 01:04:12;;;;;;;31.38;15.75;;;;;;;1.10;87.94;100380.47;5003276;28;20058;-54
2021/01/08 01:06:40;;;;;;;35.20;16.48;;;;;;;0.94;88.61;100382.56;4988928;28;20049;-52
2021/01/08 01:09:07;;;;;;;32.22;16.08;;;;;;;1.14;88.17;100379.50;5001305;28;20108;-53
2021/01/08 01:11:34;;;;;;;29.00;15.52;;;;;;;1.22;87.75;100386.22;4995990;28;20057;-52
2021/01/08 01:14:01;;;;;;;34.15;16.98;;;;;;;1.09;87.93;100384.81;5005111;28;20057;-51
2021/01/08 01:16:28;;;;;;;35.90;16.63;;;;;;;1.13;88.53;100385.59;4984927;28;20598;-53
2021/01/08 01:18:56;;;;;;;26.80;15.00;;;;;;;1.08;88.99;100379.66;4991873;28;20061;-57
2021/01/08 01:21:25;;;;;;;31.33;15.77;;;;;;;1.11;88.83;100395.13;5007150;28;20438;-56
2021/01/08 01:23:53;;;;;;;29.00;15.60;;;;;;;1.34;87.42;100386.78;5007820;28;20136;-55
2021/01/08 01:26:20;;;;;;;29.17;16.88;;;;;;;1.29;87.48;100388.66;4993454;28;20056;-57
2021/01/08 01:28:46;;;;;;;27.63;14.75;;;;;;;1.25;88.18;100390.47;5005361;28;20054;-56
2021/01/08 01:31:13;;;;;;;31.52;17.10;;;;;;;1.24;88.01;100388.78;4994370;28;20100;-54
2021/01/08 01:33:40;;;;;;;29.88;16.05;;;;;;;1.23;87.65;100385.31;4987375;28;20046;-55
2021/01/08 01:36:08;;;;;;;30.23;16.38;;;;;;;1.34;87.62;100392.84;4997340;28;20066;-55
2021/01/08 01:38:36;;;;;;;28.83;16.08;;;;;;;1.22;87.83;100390.56;5006097;28;20111;-52
2021/01/08 01:41:03;;;;;;;35.05;17.67;;;;;;;1.19;87.98;100393.22;5006087;28;20392;-57
2021/01/08 01:43:30;;;;;;;36.00;17.10;;;;;;;1.05;88.10;100395.28;5011967;28;20113;-57
2021/01/08 01:45:57;;;;;;;31.60;16.83;;;;;;;0.93;88.86;100392.09;5010330;28;20128;-57
2021/01/08 01:48:24;;;;;;;29.17;16.67;;;;;;;1.06;88.38;100392.66;5007691;28;20057;-56
2021/01/08 01:50:51;;;;;;;30.48;16.45;;;;;;;1.09;88.61;100386.56;5006361;28;20057;-56
2021/01/08 01:53:18;;;;;;;30.60;17.23;;;;;;;1.03;88.55;100390.13;4989276;28;20054;-54
2021/01/08 01:55:46;;;;;;;30.02;17.63;;;;;;;1.17;88.16;100392.38;4993133;28;20269;-55
2021/01/08 01:58:13;;;;;;;34.50;17.48;;;;;;;1.08;88.33;100392.59;5005338;28;20049;-54
2021/01/08 02:00:40;;;;;;;32.63;16.73;;;;;;;1.05;88.17;100390.09;5008054;28;20100;-51
2021/01/08 02:03:14;;;;;;;29.88;15.90;;;;;;;1.11;87.96;100385.63;5001161;28;20544;-56
2021/01/08 02:05:41;;;;;;;29.40;16.98;;;;;;;0.98;88.23;100389.38;5004016;28;20057;-57
2021/01/08 02:08:11;;;;;;;29.10;16.15;;;;;;;1.00;88.74;100390.22;4998298;28;20642;-53
2021/01/08 02:10:41;;;;;;;31.02;16.23;;;;;;;1.13;88.35;100386.44;4986784;28;20538;-53
2021/01/08 02:13:12;;;;;;;31.30;17.35;;;;;;;1.00;88.15;100395.41;4990828;28;20066;-58
2021/01/08 02:15:39;;;;;;;34.30;16.98;;;;;;;0.85;88.70;100390.56;5006394;28;20050;-54
2021/01/08 02:18:06;;;;;;;28.23;16.73;;;;;;;1.07;88.74;100386.56;5011514;28;20049;-58
2021/01/08 02:20:33;;;;;;;33.50;16.60;;;;;;;0.88;88.29;100390.50;4988044;28;20113;-56
2021/01/08 02:23:14;;;;;;;31.23;16.60;;;;;;;1.08;88.74;100387.41;5009951;28;20493;-54
2021/01/08 02:25:41;;;;;;;29.70;16.77;;;;;;;1.15;87.85;100384.66;4992363;28;20049;-51
2021/01/08 02:28:17;;;;;;;28.40;16.20;;;;;;;1.12;87.81;100383.88;5003730;28;20065;-52
2021/01/08 02:30:44;;;;;;;29.77;16.92;;;;;;;1.03;87.66;100384.94;4997761;28;20113;-56
2021/01/08 02:33:12;;;;;;;29.95;16.60;;;;;;;0.94;88.12;100386.00;5012431;28;20470;-55
2021/01/08 02:35:42;;;;;;;29.20;15.85;;;;;;;0.85;88.61;100387.97;5015025;28;20042;-56
2021/01/08 02:38:11;;;;;;;31.10;17.20;;;;;;;1.16;87.75;100378.56;4985505;28;20046;-59
2021/01/08 02:40:38;;;;;;;34.42;17.80;;;;;;;1.20;87.46;100384.53;5003539;28;20436;-53
2021/01/08 02:43:06;;;;;;;29.70;15.98;;;;;;;1.00;87.89;100380.69;5000948;28;20057;-52
2021/01/08 02:45:33;;;;;;;32.15;18.15;;;;;;;0.87;88.61;100387.06;5008767;28;20526;-57
2021/01/08 02:48:00;;;;;;;30.13;15.60;;;;;;;0.84;88.78;100383.66;4991388;28;20058;-55
2021/01/08 02:50:27;;;;;;;36.53;17.80;;;;;;;0.87;88.47;100387.06;5014950;28;20062;-57
2021/01/08 02:52:58;;;;;;;31.42;17.92;;;;;;;0.79;89.37;100372.56;5006201;28;20124;-56
2021/01/08 02:55:30;;;;;;;30.98;17.17;;;;;;;0.85;89.01;100381.03;4992657;28;20048;-58
2021/01/08 02:57:59;;;;;;;30.30;17.17;;;;;;;1.01;88.15;100374.63;5009751;28;20088;-52
2021/01/08 03:00:30;;;;;;;31.80;17.50;;;;;;;0.98;88.31;100382.47;5014982;28;20045;-57
2021/01/08 03:02:57;;;;;;;33.03;17.42;;;;;;;1.10;88.29;100376.16;5002397;28;20078;-55
2021/01/08 03:05:27;;;;;;;31.13;16.08;;;;;;;0.79;88.33;100383.78;4989653;28;20033;-54
2021/01/08 03:07:55;;;;;;;33.15;17.52;;;;;;;0.86;88.66;100385.34;4989029;28;20293;-58
2021/01/08 03:10:25;;;;;;;32.70;17.15;;;;;;;1.00;88.39;100380.69;5005432;28;20141;-55
2021/01/08 03:13:01;;;;;;;29.25;16.90;;;;;;;0.83;88.43;100379.38;5001710;28;20650;-56
2021/01/08 03:15:28;;;;;;;;;;;;;;;0.98;88.56;100384.19;5002996;28;20081;-54
2021/01/08 03:17:54;;;;;;;;;;;;;;;1.11;88.28;100372.66;4999965;28;19929;-51
2021/01/08 03:20:20;;;;;;;27.80;15.55;;;;;;;1.13;87.92;100370.91;4989061;28;19932;-54
2021/01/08 03:22:47;;;;;;;32.13;17.45;;;;;;;1.03;88.10;100374.56;5002426;28;20073;-57
2021/01/08 03:25:14;;;;;;;34.35;17.77;;;;;;;0.84;88.93;100379.34;5003614;28;20049;-54
2021/01/08 03:27:41;;;;;;;34.10;18.10;;;;;;;0.87;89.11;100381.03;5001054;28;20153;-55
2021/01/08 03:30:09;;;;;;;33.53;17.55;;;;;;;0.81;89.23;100365.59;5004782;28;20221;-59
2021/01/08 03:32:36;;;;;;;30.83;16.55;;;;;;;0.94;89.38;100373.03;5002733;28;20046;-53
2021/01/08 03:35:06;;;;;;;37.63;19.20;;;;;;;0.90;88.41;100371.44;5008091;28;20060;-56
2021/01/08 03:37:33;;;;;;;33.60;17.33;;;;;;;0.81;88.93;100378.56;4997452;28;20054;-53
2021/01/08 03:40:00;;;;;;;33.85;17.73;;;;;;;0.89;89.34;100379.22;5007842;28;20050;-56
2021/01/08 03:42:27;;;;;;;34.30;18.13;;;;;;;0.69;89.60;100372.78;5005161;28;20058;-55
2021/01/08 03:44:53;;;;;;;33.95;17.90;;;;;;;0.50;90.76;100369.75;5003018;28;20499;-56
2021/01/08 03:47:20;;;;;;;40.35;19.02;;;;;;;0.65;90.69;100376.31;5006195;28;20064;-57
2021/01/08 03:49:47;;;;;;;34.13;17.10;;;;;;;0.79;90.26;100376.00;5000595;28;20050;-53
2021/01/08 03:52:14;;;;;;;39.30;19.15;;;;;;;0.93;89.29;100371.34;5005374;28;20049;-52
2021/01/08 03:54:40;;;;;;;31.40;17.77;;;;;;;0.93;89.72;100373.09;5007668;28;20053;-58
2021/01/08 03:57:08;;;;;;;36.30;18.40;;;;;;;0.85;90.23;100369.81;5013500;28;20379;-58
2021/01/08 03:59:34;;;;;;;33.97;18.45;;;;;;;0.78;90.31;100366.53;5006111;28;20136;-58
2021/01/08 04:02:05;;;;;;;36.03;18.13;;;;;;;0.88;89.95;100373.19;5011988;28;20134;-52
2021/01/08 04:04:32;;;;;;;35.65;19.15;;;;;;;0.72;90.27;100367.53;4985823;28;20148;-56
2021/01/08 04:06:59;;;;;;;35.15;19.02;;;;;;;0.91;89.55;100365.38;4992898;28;20140;-56
2021/01/08 04:09:25;;;;;;;36.67;18.35;;;;;;;0.70;90.49;100365.84;5005523;28;20072;-53
2021/01/08 04:11:52;;;;;;;39.25;19.05;;;;;;;0.62;91.03;100360.84;5005700;28;20431;-55
2021/01/08 04:14:19;;;;;;;34.53;18.50;;;;;;;0.89;90.22;100367.13;5004665;28;20229;-55
2021/01/08 04:16:45;;;;;;;33.28;17.83;;;;;;;0.87;89.77;100368.06;4995967;28;20056;-54
2021/01/08 04:19:13;;;;;;;36.15;19.25;;;;;;;0.88;89.82;100364.56;5000645;28;20054;-55
2021/01/08 04:21:39;;;;;;;31.77;17.52;;;;;;;0.76;90.10;100363.97;4999050;28;20545;-52
2021/01/08 04:24:07;;;;;;;34.47;18.88;;;;;;;0.75;90.62;100367.44;4997207;28;20233;-53
2021/01/08 04:26:34;;;;;;;36.25;18.80;;;;;;;0.80;90.47;100363.91;5006716;28;20054;-57
2021/01/08 04:29:01;;;;;;;35.60;18.50;;;;;;;0.62;91.42;100365.16;4999195;28;20140;-57
2021/01/08 04:31:27;;;;;;;38.25;20.50;;;;;;;0.47;91.46;100364.63;5001041;28;20060;-55
2021/01/08 04:33:54;;;;;;;40.75;19.15;;;;;;;0.56;91.78;100367.91;5011102;28;20056;-57
2021/01/08 04:36:21;;;;;;;38.63;18.35;;;;;;;0.82;90.54;100359.56;5004091;28;20049;-57
2021/01/08 04:38:48;;;;;;;35.80;18.15;;;;;;;0.89;89.74;100356.75;5004028;28;20324;-53
2021/01/08 04:41:15;;;;;;;35.28;18.00;;;;;;;0.91;90.08;100364.50;4987053;28;20046;-55
2021/01/08 04:43:42;;;;;;;32.92;17.55;;;;;;;0.72;90.37;100362.34;4987725;28;20093;-52
2021/01/08 04:46:44;;;;;;;34.80;19.33;;;;;;;0.66;90.24;100365.06;5005206;28;20046;-57
2021/01/08 04:49:11;;;;;;;40.50;19.10;;;;;;;0.36;91.26;100364.00;4909562;29;20513;-56
2021/01/08 04:51:38;;;;;;;40.28;20.00;;;;;;;0.34;92.16;100363.19;4973463;28;20046;-53
2021/01/08 04:54:05;;;;;;;37.83;18.20;;;;;;;0.17;92.84;100362.66;4986170;28;20053;-54
2021/01/08 04:56:38;;;;;;;36.15;18.23;;;;;;;0.34;92.67;100365.75;4998075;28;20153;-53
2021/01/08 04:59:05;;;;;;;40.35;20.63;;;;;;;0.15;92.94;100365.31;5004416;28;20147;-53
2021/01/08 05:01:31;;;;;;;40.88;19.98;;;;;;;0.23;93.54;100367.75;5001405;28;20724;-56
2021/01/08 05:03:58;;;;;;;41.60;20.27;;;;;;;0.45;92.77;100366.41;4984994;28;20058;-53
2021/01/08 05:06:25;;;;;;;38.53;19.67;;;;;;;0.29;92.78;100377.13;4995549;28;20046;-54
2021/01/08 05:08:52;;;;;;;40.75;21.73;;;;;;;0.35;92.54;100379.56;5002141;28;20084;-54
2021/01/08 05:11:26;;;;;;;41.63;20.35;;;;;;;0.27;92.87;100374.56;5004607;28;20057;-56
2021/01/08 05:13:57;;;;;;;38.13;19.13;;;;;;;0.54;91.79;100378.31;5004306;28;20046;-55
2021/01/08 05:16:26;;;;;;;42.53;20.25;;;;;;;0.51;92.26;100378.38;5002960;28;20050;-57
2021/01/08 05:18:54;;;;;;;41.35;19.85;;;;;;;0.57;91.72;100369.59;5002356;28;20127;-55
2021/01/08 05:21:25;;;;;;;38.17;19.55;;;;;;;0.70;91.33;100371.03;4987452;28;20053;-52
2021/01/08 05:23:56;;;;;;;38.15;19.92;;;;;;;0.84;90.63;100375.91;5000447;28;20058;-53
2021/01/08 05:26:23;;;;;;;37.35;19.40;;;;;;;0.85;90.42;100370.66;4997463;28;20085;-54
2021/01/08 05:28:52;;;;;;;39.95;19.55;;;;;;;0.80;90.31;100376.84;5001811;28;20418;-54
2021/01/08 05:31:20;;;;;;;39.65;19.55;;;;;;;0.68;90.93;100375.41;5008956;28;20065;-57
2021/01/08 05:33:48;;;;;;;36.08;19.13;;;;;;;0.69;91.10;100370.19;5012013;28;20137;-55
2021/01/08 05:36:15;;;;;;;37.67;19.08;;;;;;;0.71;91.16;100376.16;4998398;28;20046;-56
2021/01/08 05:38:44;;;;;;;41.08;20.33;;;;;;;0.56;91.58;100378.25;5000022;28;20037;-55
2021/01/08 05:41:11;;;;;;;35.70;18.35;;;;;;;0.87;90.86;100371.50;4983843;28;20141;-57
2021/01/08 05:43:39;;;;;;;38.95;20.15;;;;;;;0.92;90.19;100374.84;5003761;28;20515;-53
2021/01/08 05:46:17;;;;;;;40.20;18.95;;;;;;;0.84;90.18;100388.84;5002893;28;20049;-54
2021/01/08 05:48:57;;;;;;;36.13;18.02;;;;;;;0.99;90.43;100381.59;4981701;28;20081;-53
2021/01/08 05:51:27;;;;;;;40.22;19.50;;;;;;;0.65;90.28;100383.25;5002790;28;20054;-51
2021/01/08 05:53:58;;;;;;;37.65;20.23;;;;;;;0.63;91.26;100379.81;5001098;28;20137;-53
2021/01/08 05:56:26;;;;;;;41.50;21.02;;;;;;;0.71;90.85;100388.28;5003812;28;20061;-51
2021/01/08 05:58:53;;;;;;;34.03;18.67;;;;;;;1.07;90.08;100388.31;4988915;28;20050;-52
2021/01/08 06:01:20;;;;;;;35.45;18.85;;;;;;;0.95;89.35;100384.28;5002235;28;20152;-56
2021/01/08 06:03:47;;;;;;;37.90;19.42;;;;;;;1.06;89.73;100386.63;4997372;28;20046;-57
2021/01/08 06:06:14;;;;;;;35.05;18.17;;;;;;;1.05;89.52;100383.19;5002106;28;20327;-57
2021/01/08 06:08:47;;;;;;;41.92;20.30;;;;;;;1.05;89.56;100390.09;5011729;28;20128;-52
2021/01/08 06:11:34;;;;;;;40.67;18.50;;;;;;;1.06;90.05;100390.06;4988374;28;20054;-57
2021/01/08 06:14:02;;;;;;;37.00;18.40;;;;;;;1.10;89.34;100380.47;4989201;28;20066;-55
2021/01/08 06:16:39;;;;;;;37.83;18.40;;;;;;;1.13;88.95;100390.78;5008364;28;20380;-55
2021/01/08 06:19:06;;;;;;;35.75;18.10;;;;;;;0.89;89.48;100393.03;4981577;28;20102;-55
2021/01/08 06:21:45;;;;;;;38.05;19.63;;;;;;;1.09;89.61;100384.81;5000524;28;20057;-55
2021/01/08 06:24:13;;;;;;;31.67;17.45;;;;;;;1.06;89.13;100391.81;5020209;23;20312;-58
2021/01/08 06:26:40;;;;;;;36.97;19.98;;;;;;;1.10;89.39;100381.31;5016216;28;20066;-58
2021/01/08 06:29:23;;;;;;;37.63;19.35;;;;;;;1.17;88.47;100389.78;5022316;28;20069;-59
2021/01/08 06:31:51;;;;;;;37.78;19.33;;;;;;;1.11;88.67;100389.94;5005124;28;20418;-56
2021/01/08 06:34:28;;;;;;;36.30;19.27;;;;;;;1.12;88.96;100387.31;5019331;28;20050;-58
2021/01/08 06:37:03;;;;;;;35.75;18.75;;;;;;;0.97;89.82;100398.91;5017543;28;20077;-58
2021/01/08 06:39:44;;;;;;;32.83;18.27;;;;;;;0.96;89.79;100394.63;5018370;28;20061;-59
2021/01/08 06:42:23;;;;;;;35.42;18.95;;;;;;;0.88;89.90;100401.72;5023585;28;20137;-61
2021/01/08 06:44:50;;;;;;;38.08;18.10;;;;;;;1.10;89.56;100393.44;5011766;28;20046;-58
2021/01/08 06:47:20;;;;;;;37.55;19.75;;;;;;;0.94;90.09;100401.56;5010053;28;20472;-61
2021/01/08 06:49:51;;;;;;;37.58;18.92;;;;;;;0.89;89.58;100398.22;4994428;28;20049;-60
2021/01/08 06:52:18;;;;;;;39.15;19.52;;;;;;;0.95;89.78;100407.63;5014702;28;20087;-59
2021/01/08 06:54:52;;;;;;;38.83;20.98;;;;;;;0.97;89.58;100405.84;5016260;28;20577;-62
2021/01/08 06:57:19;;;;;;;39.42;19.50;;;;;;;0.94;89.97;100413.66;5011773;28;20058;-56
2021/01/08 06:59:57;;;;;;;36.17;19.42;;;;;;;0.96;90.65;100422.28;5009053;28;20054;-57
2021/01/08 07:02:25;;;;;;;43.38;20.60;;;;;;;0.81;90.37;100417.41;5004730;28;20069;-60
2021/01/08 07:04:52;;;;;;;36.25;20.00;;;;;;;0.72;91.37;100421.94;5007407;28;20034;-58
2021/01/08 07:07:25;;;;;;;36.33;19.83;;;;;;;0.76;91.60;100420.97;5006911;28;20470;-57
2021/01/08 07:09:54;;;;;;;38.20;19.15;;;;;;;0.74;91.24;100422.75;4978273;28;20125;-56
2021/01/08 07:12:25;;;;;;;37.63;19.50;;;;;;;0.67;91.22;100423.75;5010578;28;20149;-59
2021/01/08 07:14:53;;;;;;;41.25;21.50;;;;;;;0.67;92.21;100428.94;5003076;28;20474;-57
2021/01/08 07:17:33;;;;;;;40.95;22.70;;;;;;;0.70;91.12;100428.88;4986825;28;20054;-58
2021/01/08 07:20:02;;;;;;;38.90;21.73;;;;;;;0.81;91.55;100430.38;5011185;28;20506;-59
2021/01/08 07:22:32;;;;;;;40.90;19.67;;;;;;;0.95;90.63;100436.97;5010271;28;20058;-60
2021/01/08 07:24:59;;;;;;;38.58;20.67;;;;;;;0.95;90.41;100436.97;4994303;28;20042;-61
2021/01/08 07:27:26;;;;;;;33.13;18.05;;;;;;;0.94;91.09;100440.44;5000977;28;20046;-61
2021/01/08 07:29:53;;;;;;;38.22;19.55;;;;;;;1.11;90.12;100440.06;5001826;28;20133;-56
2021/01/08 07:32:36;;;;;;;39.28;20.15;;;;;;;1.03;90.08;100441.97;5007194;28;20478;-60
2021/01/08 07:35:30;;;;;;;35.92;18.83;;;;;;;0.97;90.22;100449.88;5011001;28;20078;-63
2021/01/08 07:38:06;;;;;;;40.00;20.13;;;;;;;1.06;89.69;100447.09;4989751;28;20058;-61
2021/01/08 07:41:06;;;;;;;35.90;18.60;;;;;;;0.96;90.26;100443.00;5007820;28;20052;-63
2021/01/08 07:43:34;;;;;;;37.85;19.05;;;;;;;0.99;89.85;100451.56;5001139;28;20444;-59
2021/01/08 07:46:02;;;;;;;45.75;19.70;;;;;;;1.33;88.79;100447.34;5006206;28;20053;-65
2021/01/08 07:48:39;;;;;;;37.33;18.77;;;;;;;1.10;89.02;100450.47;4990377;28;20526;-62
2021/01/08 07:51:12;;;;;;;37.85;19.35;;;;;;;0.94;90.19;100460.31;4996680;28;20337;-61
2021/01/08 07:53:47;;;;;;;35.40;19.73;;;;;;;1.08;89.73;100462.59;4992470;28;20062;-63
2021/01/08 07:56:22;;;;;;;36.53;20.65;;;;;;;1.04;89.63;100463.56;5002370;28;20368;-61
2021/01/08 07:58:54;;;;;;;43.03;21.55;;;;;;;0.99;89.96;100463.66;4999956;28;20062;-61
2021/01/08 08:01:21;;;;;;;35.30;18.30;;;;;;;1.30;88.94;100470.75;5002034;28;20504;-61
2021/01/08 08:03:58;;;;;;;36.13;19.48;;;;;;;1.22;89.25;100476.13;4991293;28;20057;-63
2021/01/08 08:06:27;;;;;;;32.78;18.83;;;;;;;1.31;89.02;100470.72;5008893;28;20045;-62
2021/01/08 08:08:57;;;;;;;37.30;19.70;;;;;;;1.11;89.38;100481.53;4984814;28;20403;-61
2021/01/08 08:11:27;;;;;;;38.97;20.88;;;;;;;1.18;89.67;100480.53;5008082;28;20159;-60
2021/01/08 08:13:54;;;;;;;34.67;19.17;;;;;;;1.16;89.43;100484.88;5003495;28;20517;-59
2021/01/08 08:16:34;;;;;;;41.28;20.70;;;;;;;1.21;89.05;100493.41;4998062;28;20069;-60
2021/01/08 08:19:03;;;;;;;35.08;18.95;;;;;;;1.31;88.98;100485.44;4987594;28;20116;-59
2021/01/08 08:21:30;;;;;;;36.95;19.08;;;;;;;1.35;89.21;100489.63;5003216;28;20058;-59
2021/01/08 08:23:58;;;;;;;38.53;19.77;;;;;;;1.49;89.04;100495.38;5004304;28;20492;-58
2021/01/08 08:26:26;;;;;;;39.53;19.02;;;;;;;1.33;88.54;100497.47;5002621;28;20049;-58
2021/01/08 08:29:09;;;;;;;36.45;19.65;;;;;;;1.44;88.28;100495.50;5003562;28;20070;-61
2021/01/08 08:31:50;;;;;;;36.03;20.38;;;;;;;1.46;88.23;100500.63;5002639;28;20057;-61
2021/01/08 08:34:29;;;;;;;37.75;19.83;;;;;;;1.52;88.25;100501.31;5006337;28;20060;-61
2021/01/08 08:37:08;;;;;;;36.70;18.10;;;;;;;1.46;88.11;100500.63;4984855;28;20053;-62
2021/01/08 08:39:35;;;;;;;34.55;18.50;;;;;;;1.50;88.23;100502.28;4982347;28;20061;-61
2021/01/08 08:42:03;;;;;;;33.75;18.25;;;;;;;1.50;88.46;100504.88;5008792;28;20446;-60
2021/01/08 08:44:30;;;;;;;42.63;21.27;;;;;;;1.49;88.06;100510.94;5005404;28;20669;-60
2021/01/08 08:46:58;;;;;;;35.42;20.48;;;;;;;1.42;88.96;100505.03;4996363;28;20049;-61
2021/01/08 08:49:29;;;;;;;37.88;19.20;;;;;;;1.32;89.34;100502.69;4987279;28;20061;-59
2021/01/08 08:51:57;;;;;;;43.25;21.27;;;;;;;1.38;89.32;100506.00;4991137;28;20072;-61
2021/01/08 08:54:25;;;;;;;35.00;20.27;;;;;;;1.63;88.32;100508.88;5007042;28;20571;-62
2021/01/08 08:57:04;;;;;;;37.42;19.05;;;;;;;1.69;87.69;100515.66;4999518;28;20070;-61
2021/01/08 08:59:45;;;;;;;39.28;19.23;;;;;;;1.67;87.65;100513.09;5004828;28;20085;-60
2021/01/08 09:02:25;;;;;;;41.15;19.52;;;;;;;1.50;88.65;100513.50;5003189;28;20723;-63
2021/01/08 09:04:53;;;;;;;39.92;21.13;;;;;;;1.71;87.56;100512.16;5000182;28;20057;-64
2021/01/08 09:07:29;;;;;;;34.63;18.75;;;;;;;1.55;88.46;100510.78;4980167;28;20164;-63
2021/01/08 09:10:24;;;;;;;36.65;20.08;;;;;;;1.61;88.37;100507.19;5003274;28;20055;-59
2021/01/08 09:12:57;;;;;;;41.05;19.05;;;;;;;1.82;88.11;100518.81;4983237;28;20053;-62
2021/01/08 09:15:34;;;;;;;39.03;20.08;;;;;;;1.76;87.38;100512.88;5003158;28;20423;-64
2021/01/08 09:18:12;;;;;;;41.70;21.48;;;;;;;1.78;88.37;100516.28;4994740;28;20089;-63
2021/01/08 09:21:12;;;;;;;39.08;19.88;;;;;;;1.89;87.31;100515.16;5004503;28;20062;-64
2021/01/08 09:23:43;;;;;;;38.08;19.42;;;;;;;1.97;86.98;100519.25;4982996;28;20111;-61
2021/01/08 09:26:17;;;;;;;41.35;20.45;;;;;;;1.82;87.25;100518.81;4988983;28;20034;-60
2021/01/08 09:28:55;;;;;;;38.13;20.42;;;;;;;1.97;88.11;100516.66;5006803;28;20064;-63
2021/01/08 09:31:41;;;;;;;36.40;18.95;;;;;;;1.94;87.57;100519.34;5004120;28;20148;-59
2021/01/08 09:34:08;;;;;;;39.97;18.13;;;;;;;2.05;87.27;100518.22;4999965;28;20064;-61
2021/01/08 09:36:39;;;;;;;47.28;24.38;;;;;;;2.08;86.89;100515.56;4983938;28;20041;-63
2021/01/08 09:39:10;;;;;;;39.63;19.13;;;;;;;2.06;86.70;100525.13;5006737;28;21264;-61
2021/01/08 09:41:39;;;;;;;35.20;18.95;;;;;;;1.81;87.45;100519.69;4989921;28;20072;-64
2021/01/08 09:44:08;;;;;;;41.35;19.38;;;;;;;2.06;86.96;100515.56;4986591;28;20053;-60
2021/01/08 09:46:57;;;;;;;41.92;20.40;;;;;;;2.00;86.68;100516.59;5009823;28;20068;-58
2021/01/08 09:49:45;;;;;;;37.45;19.10;;;;;;;2.00;87.25;100514.00;4994640;28;20049;-61
2021/01/08 09:52:14;;;;;;;39.28;20.48;;;;;;;2.12;86.52;100512.00;5007377;28;20507;-59
2021/01/08 09:54:55;;;;;;;37.75;20.10;;;;;;;2.02;86.87;100512.19;4991350;28;20557;-60
2021/01/08 09:57:36;;;;;;;42.95;19.90;;;;;;;2.14;86.58;100511.03;5009491;28;20153;-64
2021/01/08 10:00:03;;;;;;;38.65;18.63;;;;;;;2.24;86.33;100511.66;5006798;28;20129;-64
2021/01/08 10:02:40;;;;;;;41.33;19.98;;;;;;;2.28;86.16;100515.88;5010790;28;20065;-59
2021/01/08 10:05:31;;;;;;;36.28;19.52;;;;;;;1.95;87.45;100517.59;4985567;28;20046;-59
2021/01/08 10:08:00;;;;;;;37.05;19.83;;;;;;;2.15;86.18;100520.53;4989420;28;20716;-61
2021/01/08 10:10:27;;;;;;;36.60;18.83;;;;;;;2.15;86.78;100519.69;5006679;28;20244;-63
2021/01/08 10:12:58;;;;;;;37.63;19.50;;;;;;;2.32;86.07;100517.50;5014235;28;20060;-64
2021/01/08 10:15:39;;;;;;;32.40;17.88;;;;;;;2.29;86.11;100514.97;4991800;28;20045;-63
2021/01/08 10:18:08;;;;;;;36.30;18.27;;;;;;;2.39;85.88;100513.84;4999847;28;20180;-61
2021/01/08 10:21:00;;;;;;;35.03;19.52;;;;;;;2.06;86.65;100514.72;5008468;28;20624;-61
2021/01/08 10:23:41;;;;;;;35.45;18.52;;;;;;;2.20;86.30;100517.81;5008607;28;20065;-61
2021/01/08 10:26:17;;;;;;;36.70;18.52;;;;;;;2.05;86.28;100515.63;5003100;28;20057;-61
2021/01/08 10:28:51;;;;;;;41.75;20.15;;;;;;;1.91;87.06;100522.03;5000852;28;20228;-62
2021/01/08 10:31:19;;;;;;;46.33;18.45;;;;;;;1.91;86.49;100514.22;5013125;28;20563;-62
2021/01/08 10:33:48;;;;;;;39.85;17.02;;;;;;;1.94;87.30;100514.16;5008618;28;20359;-61
2021/01/08 10:36:15;;;;;;;51.53;19.02;;;;;;;2.12;86.53;100515.44;4990480;28;20422;-63
2021/01/08 10:38:42;;;;;;;41.50;16.02;;;;;;;2.34;85.57;100515.69;5001059;28;20164;-63
2021/01/08 10:41:17;;;;;;;46.63;16.30;;;;;;;2.13;85.34;100516.28;4993581;28;20148;-64
2021/01/08 10:43:44;;;;;;;35.72;17.83;;;;;;;1.63;87.24;100521.00;4988539;28;20503;-60
2021/01/08 10:46:14;;;;;;;30.38;16.73;;;;;;;1.89;86.75;100515.16;5003866;28;20042;-64
2021/01/08 10:48:42;;;;;;;30.02;16.55;;;;;;;1.88;86.56;100513.44;5005573;28;20101;-59
2021/01/08 10:51:09;;;;;;;31.30;16.98;;;;;;;1.90;86.70;100514.28;5005371;28;20331;-60
2021/01/08 10:53:36;;;;;;;33.75;16.98;;;;;;;2.02;86.12;100514.78;5006249;28;20049;-58
2021/01/08 10:56:03;;;;;;;32.08;17.15;;;;;;;2.18;86.13;100514.41;5007599;28;20053;-61
2021/01/08 10:58:30;;;;;;;33.92;15.68;;;;;;;2.15;86.61;100522.28;5009153;28;20481;-58
2021/01/08 11:00:58;;;;;;;31.42;15.15;;;;;;;2.15;86.37;100527.47;5003258;28;20116;-62
2021/01/08 11:03:25;;;;;;;30.20;16.45;;;;;;;2.27;86.00;100525.41;5009480;28;20069;-60
2021/01/08 11:05:51;;;;;;;27.27;14.85;;;;;;;2.20;85.68;100517.81;5002626;28;20144;-62
2021/01/08 11:08:18;;;;;;;26.58;14.63;;;;;;;2.21;85.71;100514.34;4993354;28;20141;-61
2021/01/08 11:10:45;;;;;;;26.20;14.95;;;;;;;2.38;85.57;100514.72;5011204;28;20420;-60
2021/01/08 11:13:13;;;;;;;40.35;15.20;;;;;;;2.31;84.87;100520.16;4987226;28;20057;-60
2021/01/08 11:15:39;;;;;;;33.97;15.02;;;;;;;2.31;85.20;100515.81;4992320;28;20068;-62
2021/01/08 11:18:06;;;;;;;30.27;14.05;;;;;;;2.21;84.45;100523.00;5001453;28;20100;-59
2021/01/08 11:20:33;;;;;;;32.35;13.98;;;;;;;2.27;84.70;100511.56;5012236;28;20332;-62
2021/01/08 11:23:04;;;;;;;38.25;15.43;;;;;;;2.22;84.41;100516.91;5007085;28;20185;-61
2021/01/08 11:25:31;;;;;;;43.08;14.50;;;;;;;2.07;85.42;100517.28;5005731;28;20923;-58
2021/01/08 11:27:59;;;;;;;30.77;14.07;;;;;;;2.21;85.72;100514.34;5006166;28;20414;-61
2021/01/08 11:30:25;;;;;;;34.60;15.88;;;;;;;2.16;85.06;100511.88;5006834;28;20149;-59